sensor_id;sensor_type;location;lat;lon;timestamp;temperature;humidity
21176;DHT22;10746;50.178;8.186;2023-06-22T00:00:00;19.70;99.90
21176;DHT22;10746;50.178;8.186;2023-06-22T00:02:27;19.80;99.90
21176;DHT22;10746;50.178;8.186;2023-06-22T00:04:54;19.70;99.90
21176;DHT22;10746;50.178;8.186;2023-06-22T00:07:21;19.60;99.90
21176;DHT22;10746;50.178;8.186;2023-06-22T00:09:47;19.60;99.90
21176;DHT22;10746;50.178;8.186;2023-06-22T00:12:14;19.60;99.90
21176;DHT22;10746;50.178;8.186;2023-06-22T00:14:41;19.70;99.90
21176;DHT22;10746;50.178;8.186;2023-06-22T00:17:09;19.70;99.90
21176;DHT22;10746;50.178;8.186;2023-06-22T00:19:35;19.50;99.90
21176;DHT22;10746;50.178;8.186;2023-06-22T00:22:05;19.30;99.90
21176;DHT22;10746;50.178;8.186;2023-06-22T00:24:32;19.30;99.90
21176;DHT22;10746;50.178;8.186;2023-06-22T00:26:59;19.20;99.90
21176;DHT22;10746;50.178;8.186;2023-06-22T00:29:25;19.20;99.90
21176;DHT22;10746;50.178;8.186;2023-06-22T00:31:52;19.10;99.90
21176;DHT22;10746;50.178;8.186;2023-06-22T00:34:20;19.10;99.90
21176;DHT22;10746;50.178;8.186;2023-06-22T00:36:47;19.10;99.90
21176;DHT22;10746;50.178;8.186;2023-06-22T00:39:13;19.20;99.90
21176;DHT22;10746;50.178;8.186;2023-06-22T00:41:40;19.30;99.90
21176;DHT22;10746;50.178;8.186;2023-06-22T00:44:07;19.40;99.90
21176;DHT22;10746;50.178;8.186;2023-06-22T00:46:34;19.20;99.90
21176;DHT22;10746;50.178;8.186;2023-06-22T00:49:00;19.20;99.90
21176;DHT22;10746;50.178;8.186;2023-06-22T00:51:30;19.10;99.90
21176;DHT22;10746;50.178;8.186;2023-06-22T00:53:57;19.10;99.90
21176;DHT22;10746;50.178;8.186;2023-06-22T00:56:24;19.00;99.90
21176;DHT22;10746;50.178;8.186;2023-06-22T00:58:51;18.90;99.90
21176;DHT22;10746;50.178;8.186;2023-06-22T01:01:19;18.90;99.90
21176;DHT22;10746;50.178;8.186;2023-06-22T01:03:49;18.80;99.90
21176;DHT22;10746;50.178;8.186;2023-06-22T01:06:22;18.80;99.90
21176;DHT22;10746;50.178;8.186;2023-06-22T01:09:00;18.70;99.90
21176;DHT22;10746;50.178;8.186;2023-06-22T01:11:34;18.70;99.90
21176;DHT22;10746;50.178;8.186;2023-06-22T01:14:07;18.60;99.90
21176;DHT22;10746;50.178;8.186;2023-06-22T01:16:40;18.60;99.90
21176;DHT22;10746;50.178;8.186;2023-06-22T01:19:20;18.60;99.90
21176;DHT22;10746;50.178;8.186;2023-06-22T01:21:50;18.50;99.90
21176;DHT22;10746;50.178;8.186;2023-06-22T01:24:24;18.40;99.90
21176;DHT22;10746;50.178;8.186;2023-06-22T01:27:00;18.50;99.90
21176;DHT22;10746;50.178;8.186;2023-06-22T01:29:32;18.50;99.90
21176;DHT22;10746;50.178;8.186;2023-06-22T01:35:22;18.60;99.90
21176;DHT22;10746;50.178;8.186;2023-06-22T01:37:49;18.60;99.90
21176;DHT22;10746;50.178;8.186;2023-06-22T01:40:17;18.60;99.90
21176;DHT22;10746;50.178;8.186;2023-06-22T01:42:44;18.60;99.90
21176;DHT22;10746;50.178;8.186;2023-06-22T01:45:12;18.50;99.90
21176;DHT22;10746;50.178;8.186;2023-06-22T01:54:09;18.40;99.90
21176;DHT22;10746;50.178;8.186;2023-06-22T01:56:35;18.40;99.90
21176;DHT22;10746;50.178;8.186;2023-06-22T01:59:07;18.40;99.90
21176;DHT22;10746;50.178;8.186;2023-06-22T02:01:42;18.50;99.90
21176;DHT22;10746;50.178;8.186;2023-06-22T02:04:13;18.50;99.90
21176;DHT22;10746;50.178;8.186;2023-06-22T02:06:46;18.60;99.90
21176;DHT22;10746;50.178;8.186;2023-06-22T02:09:17;18.60;99.90
21176;DHT22;10746;50.178;8.186;2023-06-22T02:18:30;18.70;99.90
21176;DHT22;10746;50.178;8.186;2023-06-22T02:20:57;18.80;99.90
21176;DHT22;10746;50.178;8.186;2023-06-22T02:23:24;18.80;99.90
21176;DHT22;10746;50.178;8.186;2023-06-22T02:25:51;18.70;99.90
21176;DHT22;10746;50.178;8.186;2023-06-22T02:28:18;18.50;99.90
21176;DHT22;10746;50.178;8.186;2023-06-22T02:30:44;18.50;99.90
21176;DHT22;10746;50.178;8.186;2023-06-22T02:33:11;18.60;99.90
21176;DHT22;10746;50.178;8.186;2023-06-22T02:35:39;18.60;99.90
21176;DHT22;10746;50.178;8.186;2023-06-22T02:38:11;18.60;99.90
21176;DHT22;10746;50.178;8.186;2023-06-22T02:40:37;18.50;99.90
21176;DHT22;10746;50.178;8.186;2023-06-22T02:43:04;18.30;99.90
21176;DHT22;10746;50.178;8.186;2023-06-22T02:45:31;18.20;99.90
21176;DHT22;10746;50.178;8.186;2023-06-22T02:47:58;18.20;99.90
21176;DHT22;10746;50.178;8.186;2023-06-22T02:50:25;18.30;99.90
21176;DHT22;10746;50.178;8.186;2023-06-22T02:52:53;18.40;99.90
21176;DHT22;10746;50.178;8.186;2023-06-22T02:55:19;18.50;99.90
21176;DHT22;10746;50.178;8.186;2023-06-22T02:57:46;18.50;99.90
21176;DHT22;10746;50.178;8.186;2023-06-22T03:00:14;18.50;99.90
21176;DHT22;10746;50.178;8.186;2023-06-22T03:02:43;18.60;99.90
21176;DHT22;10746;50.178;8.186;2023-06-22T03:05:10;18.60;99.90
21176;DHT22;10746;50.178;8.186;2023-06-22T03:07:40;18.60;99.90
21176;DHT22;10746;50.178;8.186;2023-06-22T03:10:09;18.60;99.90
21176;DHT22;10746;50.178;8.186;2023-06-22T03:12:37;18.60;99.90
21176;DHT22;10746;50.178;8.186;2023-06-22T03:15:05;18.70;99.90
21176;DHT22;10746;50.178;8.186;2023-06-22T03:17:32;18.70;99.90
21176;DHT22;10746;50.178;8.186;2023-06-22T03:19:59;18.70;99.90
21176;DHT22;10746;50.178;8.186;2023-06-22T03:22:26;18.70;99.90
21176;DHT22;10746;50.178;8.186;2023-06-22T03:24:53;18.70;99.90
21176;DHT22;10746;50.178;8.186;2023-06-22T03:27:21;18.70;99.90
21176;DHT22;10746;50.178;8.186;2023-06-22T03:29:48;18.70;99.90
21176;DHT22;10746;50.178;8.186;2023-06-22T03:32:14;18.70;99.90
21176;DHT22;10746;50.178;8.186;2023-06-22T03:34:41;18.60;99.90
21176;DHT22;10746;50.178;8.186;2023-06-22T03:37:12;18.70;99.90
21176;DHT22;10746;50.178;8.186;2023-06-22T03:39:39;18.70;99.90
21176;DHT22;10746;50.178;8.186;2023-06-22T03:42:06;18.70;99.90
21176;DHT22;10746;50.178;8.186;2023-06-22T03:44:34;18.80;99.90
21176;DHT22;10746;50.178;8.186;2023-06-22T03:47:01;18.80;99.90
21176;DHT22;10746;50.178;8.186;2023-06-22T03:49:28;18.80;99.90
21176;DHT22;10746;50.178;8.186;2023-06-22T03:51:55;18.80;99.90
21176;DHT22;10746;50.178;8.186;2023-06-22T03:54:22;18.80;99.90
21176;DHT22;10746;50.178;8.186;2023-06-22T03:56:48;18.70;99.90
21176;DHT22;10746;50.178;8.186;2023-06-22T03:59:15;18.80;99.90
21176;DHT22;10746;50.178;8.186;2023-06-22T04:01:43;18.80;99.90
21176;DHT22;10746;50.178;8.186;2023-06-22T04:04:10;18.80;99.90
21176;DHT22;10746;50.178;8.186;2023-06-22T04:06:36;18.80;99.90
21176;DHT22;10746;50.178;8.186;2023-06-22T04:09:03;18.80;99.90
21176;DHT22;10746;50.178;8.186;2023-06-22T04:11:30;18.70;99.90
21176;DHT22;10746;50.178;8.186;2023-06-22T04:13:57;18.70;99.90
21176;DHT22;10746;50.178;8.186;2023-06-22T04:16:24;18.70;99.90
21176;DHT22;10746;50.178;8.186;2023-06-22T04:18:52;18.80;99.90
21176;DHT22;10746;50.178;8.186;2023-06-22T04:21:18;18.80;99.90
21176;DHT22;10746;50.178;8.186;2023-06-22T04:23:46;18.80;99.90
21176;DHT22;10746;50.178;8.186;2023-06-22T04:26:13;18.70;99.90
21176;DHT22;10746;50.178;8.186;2023-06-22T04:28:40;18.80;99.90
21176;DHT22;10746;50.178;8.186;2023-06-22T04:31:07;18.80;99.90
21176;DHT22;10746;50.178;8.186;2023-06-22T04:33:33;18.80;99.90
21176;DHT22;10746;50.178;8.186;2023-06-22T04:36:02;18.90;99.90
21176;DHT22;10746;50.178;8.186;2023-06-22T04:38:29;18.90;99.90
21176;DHT22;10746;50.178;8.186;2023-06-22T04:40:58;18.90;99.90
21176;DHT22;10746;50.178;8.186;2023-06-22T04:43:26;19.00;99.90
21176;DHT22;10746;50.178;8.186;2023-06-22T04:45:55;18.90;99.90
21176;DHT22;10746;50.178;8.186;2023-06-22T04:48:29;19.00;99.90
21176;DHT22;10746;50.178;8.186;2023-06-22T04:50:58;18.90;99.90
21176;DHT22;10746;50.178;8.186;2023-06-22T04:53:29;18.90;99.90
21176;DHT22;10746;50.178;8.186;2023-06-22T04:55:56;18.90;99.90
21176;DHT22;10746;50.178;8.186;2023-06-22T04:58:23;18.80;99.90
21176;DHT22;10746;50.178;8.186;2023-06-22T05:00:54;18.80;99.90
21176;DHT22;10746;50.178;8.186;2023-06-22T05:03:22;18.70;99.90
21176;DHT22;10746;50.178;8.186;2023-06-22T05:05:51;18.70;99.90
21176;DHT22;10746;50.178;8.186;2023-06-22T05:08:18;18.60;99.90
21176;DHT22;10746;50.178;8.186;2023-06-22T05:10:46;18.60;99.90
21176;DHT22;10746;50.178;8.186;2023-06-22T05:13:13;18.70;99.90
21176;DHT22;10746;50.178;8.186;2023-06-22T05:15:39;18.70;99.90
21176;DHT22;10746;50.178;8.186;2023-06-22T05:18:06;18.80;99.90
21176;DHT22;10746;50.178;8.186;2023-06-22T05:20:33;18.90;99.90
21176;DHT22;10746;50.178;8.186;2023-06-22T05:23:01;18.90;99.90
21176;DHT22;10746;50.178;8.186;2023-06-22T05:25:28;19.00;99.90
21176;DHT22;10746;50.178;8.186;2023-06-22T05:27:59;19.00;99.90
21176;DHT22;10746;50.178;8.186;2023-06-22T05:30:27;19.00;99.90
21176;DHT22;10746;50.178;8.186;2023-06-22T05:32:53;19.10;99.90
21176;DHT22;10746;50.178;8.186;2023-06-22T05:35:20;19.10;99.90
21176;DHT22;10746;50.178;8.186;2023-06-22T05:37:47;19.20;99.90
21176;DHT22;10746;50.178;8.186;2023-06-22T05:40:14;19.20;99.90
21176;DHT22;10746;50.178;8.186;2023-06-22T05:42:41;19.30;99.90
21176;DHT22;10746;50.178;8.186;2023-06-22T05:45:09;19.40;99.90
21176;DHT22;10746;50.178;8.186;2023-06-22T05:47:36;19.70;99.90
21176;DHT22;10746;50.178;8.186;2023-06-22T05:50:04;20.00;99.90
21176;DHT22;10746;50.178;8.186;2023-06-22T05:52:32;20.30;99.90
21176;DHT22;10746;50.178;8.186;2023-06-22T05:54:58;20.70;99.90
21176;DHT22;10746;50.178;8.186;2023-06-22T05:57:25;20.90;99.90
21176;DHT22;10746;50.178;8.186;2023-06-22T05:59:52;21.10;99.90
21176;DHT22;10746;50.178;8.186;2023-06-22T06:02:20;21.30;99.90
21176;DHT22;10746;50.178;8.186;2023-06-22T06:04:47;21.60;99.90
21176;DHT22;10746;50.178;8.186;2023-06-22T06:07:16;21.70;99.90
21176;DHT22;10746;50.178;8.186;2023-06-22T06:09:43;22.00;99.90
21176;DHT22;10746;50.178;8.186;2023-06-22T06:12:10;22.10;99.90
21176;DHT22;10746;50.178;8.186;2023-06-22T06:14:36;22.30;99.90
21176;DHT22;10746;50.178;8.186;2023-06-22T06:17:03;22.50;99.90
21176;DHT22;10746;50.178;8.186;2023-06-22T06:19:31;22.50;99.90
21176;DHT22;10746;50.178;8.186;2023-06-22T06:21:58;22.70;99.90
21176;DHT22;10746;50.178;8.186;2023-06-22T06:24:26;22.80;99.90
21176;DHT22;10746;50.178;8.186;2023-06-22T06:26:53;22.90;99.90
21176;DHT22;10746;50.178;8.186;2023-06-22T06:29:20;23.10;99.90
21176;DHT22;10746;50.178;8.186;2023-06-22T06:31:49;23.00;99.90
21176;DHT22;10746;50.178;8.186;2023-06-22T06:34:15;23.10;99.90
21176;DHT22;10746;50.178;8.186;2023-06-22T06:36:43;23.20;99.90
21176;DHT22;10746;50.178;8.186;2023-06-22T06:39:10;23.00;99.90
21176;DHT22;10746;50.178;8.186;2023-06-22T06:41:37;22.80;99.90
21176;DHT22;10746;50.178;8.186;2023-06-22T06:44:04;22.70;99.90
21176;DHT22;10746;50.178;8.186;2023-06-22T06:46:30;22.70;99.90
21176;DHT22;10746;50.178;8.186;2023-06-22T06:48:57;22.70;99.90
21176;DHT22;10746;50.178;8.186;2023-06-22T06:51:24;22.80;99.90
21176;DHT22;10746;50.178;8.186;2023-06-22T06:53:52;22.80;99.90
21176;DHT22;10746;50.178;8.186;2023-06-22T06:56:19;22.70;99.90
21176;DHT22;10746;50.178;8.186;2023-06-22T06:58:45;22.80;99.90
21176;DHT22;10746;50.178;8.186;2023-06-22T07:01:12;23.10;99.90
21176;DHT22;10746;50.178;8.186;2023-06-22T07:03:39;23.00;99.90
21176;DHT22;10746;50.178;8.186;2023-06-22T07:06:06;23.00;99.90
21176;DHT22;10746;50.178;8.186;2023-06-22T07:08:32;22.90;99.90
21176;DHT22;10746;50.178;8.186;2023-06-22T07:11:02;23.30;99.90
21176;DHT22;10746;50.178;8.186;2023-06-22T07:13:28;23.30;99.90
21176;DHT22;10746;50.178;8.186;2023-06-22T07:15:55;23.50;99.90
21176;DHT22;10746;50.178;8.186;2023-06-22T07:18:22;23.60;99.90
21176;DHT22;10746;50.178;8.186;2023-06-22T07:20:48;23.60;99.90
21176;DHT22;10746;50.178;8.186;2023-06-22T07:23:16;23.80;99.90
21176;DHT22;10746;50.178;8.186;2023-06-22T07:25:43;23.80;99.90
21176;DHT22;10746;50.178;8.186;2023-06-22T07:28:11;23.40;99.90
21176;DHT22;10746;50.178;8.186;2023-06-22T07:30:38;23.40;99.90
21176;DHT22;10746;50.178;8.186;2023-06-22T07:33:04;23.70;99.90
21176;DHT22;10746;50.178;8.186;2023-06-22T07:35:33;23.70;99.90
21176;DHT22;10746;50.178;8.186;2023-06-22T07:38:00;24.10;99.90
21176;DHT22;10746;50.178;8.186;2023-06-22T07:40:27;24.10;99.90
21176;DHT22;10746;50.178;8.186;2023-06-22T07:42:54;24.20;99.90
21176;DHT22;10746;50.178;8.186;2023-06-22T07:45:22;24.50;99.90
21176;DHT22;10746;50.178;8.186;2023-06-22T07:47:49;24.20;99.90
21176;DHT22;10746;50.178;8.186;2023-06-22T07:50:16;24.20;99.90
21176;DHT22;10746;50.178;8.186;2023-06-22T07:52:43;24.40;99.90
21176;DHT22;10746;50.178;8.186;2023-06-22T07:55:09;24.50;99.90
21176;DHT22;10746;50.178;8.186;2023-06-22T07:57:36;24.10;99.90
21176;DHT22;10746;50.178;8.186;2023-06-22T08:00:05;24.20;99.90
21176;DHT22;10746;50.178;8.186;2023-06-22T08:02:39;24.20;99.90
21176;DHT22;10746;50.178;8.186;2023-06-22T08:05:06;24.20;99.90
21176;DHT22;10746;50.178;8.186;2023-06-22T08:07:34;24.40;99.90
21176;DHT22;10746;50.178;8.186;2023-06-22T08:10:01;24.20;99.90
21176;DHT22;10746;50.178;8.186;2023-06-22T08:12:27;24.30;99.90
21176;DHT22;10746;50.178;8.186;2023-06-22T08:14:54;24.70;99.90
21176;DHT22;10746;50.178;8.186;2023-06-22T08:17:22;24.70;99.90
21176;DHT22;10746;50.178;8.186;2023-06-22T08:19:50;25.00;99.90
21176;DHT22;10746;50.178;8.186;2023-06-22T08:22:17;25.30;99.90
21176;DHT22;10746;50.178;8.186;2023-06-22T08:24:44;25.60;99.90
21176;DHT22;10746;50.178;8.186;2023-06-22T08:27:11;25.40;99.90
21176;DHT22;10746;50.178;8.186;2023-06-22T08:29:39;25.40;99.90
21176;DHT22;10746;50.178;8.186;2023-06-22T08:32:08;24.80;99.90
21176;DHT22;10746;50.178;8.186;2023-06-22T08:34:36;24.90;99.90
21176;DHT22;10746;50.178;8.186;2023-06-22T08:37:04;24.90;99.90
21176;DHT22;10746;50.178;8.186;2023-06-22T08:39:31;25.00;99.90
21176;DHT22;10746;50.178;8.186;2023-06-22T08:41:58;25.20;99.90
21176;DHT22;10746;50.178;8.186;2023-06-22T08:44:25;25.50;99.90
21176;DHT22;10746;50.178;8.186;2023-06-22T08:46:52;25.40;99.90
21176;DHT22;10746;50.178;8.186;2023-06-22T08:49:19;25.20;99.90
21176;DHT22;10746;50.178;8.186;2023-06-22T08:51:45;25.20;99.90
21176;DHT22;10746;50.178;8.186;2023-06-22T08:54:16;25.30;99.90
21176;DHT22;10746;50.178;8.186;2023-06-22T08:56:42;25.10;99.90
21176;DHT22;10746;50.178;8.186;2023-06-22T08:59:10;25.20;99.90
21176;DHT22;10746;50.178;8.186;2023-06-22T09:01:36;25.80;99.90
21176;DHT22;10746;50.178;8.186;2023-06-22T09:04:04;26.20;99.90
21176;DHT22;10746;50.178;8.186;2023-06-22T09:06:33;26.00;99.90
21176;DHT22;10746;50.178;8.186;2023-06-22T09:08:59;25.70;99.90
21176;DHT22;10746;50.178;8.186;2023-06-22T09:11:28;25.70;99.90
21176;DHT22;10746;50.178;8.186;2023-06-22T09:13:54;25.70;99.90
21176;DHT22;10746;50.178;8.186;2023-06-22T09:16:21;25.20;99.90
21176;DHT22;10746;50.178;8.186;2023-06-22T09:18:48;25.20;99.90
21176;DHT22;10746;50.178;8.186;2023-06-22T09:21:15;25.20;99.90
21176;DHT22;10746;50.178;8.186;2023-06-22T09:23:42;25.20;99.90
21176;DHT22;10746;50.178;8.186;2023-06-22T09:26:09;25.20;99.90
21176;DHT22;10746;50.178;8.186;2023-06-22T09:28:37;25.50;99.90
21176;DHT22;10746;50.178;8.186;2023-06-22T09:31:04;25.30;99.90
21176;DHT22;10746;50.178;8.186;2023-06-22T09:33:31;25.20;99.90
21176;DHT22;10746;50.178;8.186;2023-06-22T09:35:57;25.30;99.90
21176;DHT22;10746;50.178;8.186;2023-06-22T09:38:24;25.30;99.90
21176;DHT22;10746;50.178;8.186;2023-06-22T09:40:51;25.20;99.90
21176;DHT22;10746;50.178;8.186;2023-06-22T09:43:18;25.10;99.90
21176;DHT22;10746;50.178;8.186;2023-06-22T09:45:46;24.80;99.90
21176;DHT22;10746;50.178;8.186;2023-06-22T09:48:13;24.80;99.90
21176;DHT22;10746;50.178;8.186;2023-06-22T09:50:39;24.90;99.90
21176;DHT22;10746;50.178;8.186;2023-06-22T09:53:06;25.10;99.90
21176;DHT22;10746;50.178;8.186;2023-06-22T09:55:33;25.10;99.90
21176;DHT22;10746;50.178;8.186;2023-06-22T09:57:59;24.80;99.90
21176;DHT22;10746;50.178;8.186;2023-06-22T10:00:26;25.10;99.90
21176;DHT22;10746;50.178;8.186;2023-06-22T10:02:54;25.30;99.90
21176;DHT22;10746;50.178;8.186;2023-06-22T10:05:21;25.50;99.90
21176;DHT22;10746;50.178;8.186;2023-06-22T10:07:48;25.50;99.90
21176;DHT22;10746;50.178;8.186;2023-06-22T10:10:15;25.70;99.90
21176;DHT22;10746;50.178;8.186;2023-06-22T10:12:45;25.90;99.90
21176;DHT22;10746;50.178;8.186;2023-06-22T10:15:13;25.90;99.90
21176;DHT22;10746;50.178;8.186;2023-06-22T10:17:40;26.20;99.90
21176;DHT22;10746;50.178;8.186;2023-06-22T10:20:09;25.90;99.90
21176;DHT22;10746;50.178;8.186;2023-06-22T10:22:39;26.00;99.90
21176;DHT22;10746;50.178;8.186;2023-06-22T10:25:07;26.20;99.90
21176;DHT22;10746;50.178;8.186;2023-06-22T10:27:34;26.30;99.90
21176;DHT22;10746;50.178;8.186;2023-06-22T10:30:01;26.50;99.90
21176;DHT22;10746;50.178;8.186;2023-06-22T10:32:27;26.20;99.90
21176;DHT22;10746;50.178;8.186;2023-06-22T10:34:54;26.10;99.90
21176;DHT22;10746;50.178;8.186;2023-06-22T10:37:23;26.40;99.90
21176;DHT22;10746;50.178;8.186;2023-06-22T10:39:50;26.70;99.90
21176;DHT22;10746;50.178;8.186;2023-06-22T10:42:16;26.20;99.90
21176;DHT22;10746;50.178;8.186;2023-06-22T10:44:43;25.90;99.90
21176;DHT22;10746;50.178;8.186;2023-06-22T10:47:10;25.90;99.90
21176;DHT22;10746;50.178;8.186;2023-06-22T10:49:37;26.00;99.90
21176;DHT22;10746;50.178;8.186;2023-06-22T10:52:05;26.10;99.90
21176;DHT22;10746;50.178;8.186;2023-06-22T10:54:34;26.00;99.90
21176;DHT22;10746;50.178;8.186;2023-06-22T10:57:01;26.20;99.90
21176;DHT22;10746;50.178;8.186;2023-06-22T10:59:27;26.50;99.90
21176;DHT22;10746;50.178;8.186;2023-06-22T11:01:55;26.60;99.90
21176;DHT22;10746;50.178;8.186;2023-06-22T11:04:22;26.70;99.90
21176;DHT22;10746;50.178;8.186;2023-06-22T11:06:49;26.50;99.90
21176;DHT22;10746;50.178;8.186;2023-06-22T11:09:16;26.60;99.90
21176;DHT22;10746;50.178;8.186;2023-06-22T11:11:47;26.60;99.90
21176;DHT22;10746;50.178;8.186;2023-06-22T11:14:14;26.80;99.90
21176;DHT22;10746;50.178;8.186;2023-06-22T11:16:41;26.80;99.90
21176;DHT22;10746;50.178;8.186;2023-06-22T11:19:08;26.70;99.90
21176;DHT22;10746;50.178;8.186;2023-06-22T11:21:34;27.30;99.90
21176;DHT22;10746;50.178;8.186;2023-06-22T11:24:01;27.30;99.90
21176;DHT22;10746;50.178;8.186;2023-06-22T11:26:28;27.60;99.90
21176;DHT22;10746;50.178;8.186;2023-06-22T11:28:56;27.70;99.90
21176;DHT22;10746;50.178;8.186;2023-06-22T11:31:23;27.80;99.90
21176;DHT22;10746;50.178;8.186;2023-06-22T11:33:50;27.90;99.90
21176;DHT22;10746;50.178;8.186;2023-06-22T11:36:18;27.90;99.90
21176;DHT22;10746;50.178;8.186;2023-06-22T11:38:45;28.20;99.90
21176;DHT22;10746;50.178;8.186;2023-06-22T11:41:12;28.40;99.90
21176;DHT22;10746;50.178;8.186;2023-06-22T11:43:39;28.10;99.90
21176;DHT22;10746;50.178;8.186;2023-06-22T11:46:07;27.70;99.90
21176;DHT22;10746;50.178;8.186;2023-06-22T11:48:34;28.00;99.90
21176;DHT22;10746;50.178;8.186;2023-06-22T11:51:02;28.40;99.90
21176;DHT22;10746;50.178;8.186;2023-06-22T11:53:29;28.40;99.90
21176;DHT22;10746;50.178;8.186;2023-06-22T11:55:56;28.90;99.90
21176;DHT22;10746;50.178;8.186;2023-06-22T11:58:22;29.10;99.90
21176;DHT22;10746;50.178;8.186;2023-06-22T12:00:49;29.10;99.90
21176;DHT22;10746;50.178;8.186;2023-06-22T12:03:19;29.50;99.90
21176;DHT22;10746;50.178;8.186;2023-06-22T12:05:46;29.90;99.90
21176;DHT22;10746;50.178;8.186;2023-06-22T12:08:13;30.20;99.90
21176;DHT22;10746;50.178;8.186;2023-06-22T12:10:40;29.40;99.90
21176;DHT22;10746;50.178;8.186;2023-06-22T12:13:07;28.90;99.90
21176;DHT22;10746;50.178;8.186;2023-06-22T12:15:33;29.00;99.90
21176;DHT22;10746;50.178;8.186;2023-06-22T12:18:00;29.00;99.90
21176;DHT22;10746;50.178;8.186;2023-06-22T12:20:29;29.40;99.90
21176;DHT22;10746;50.178;8.186;2023-06-22T12:22:57;30.00;99.90
21176;DHT22;10746;50.178;8.186;2023-06-22T12:25:24;30.40;99.90
21176;DHT22;10746;50.178;8.186;2023-06-22T12:27:51;30.40;99.90
21176;DHT22;10746;50.178;8.186;2023-06-22T12:30:18;30.60;99.90
21176;DHT22;10746;50.178;8.186;2023-06-22T12:32:44;31.00;99.90
21176;DHT22;10746;50.178;8.186;2023-06-22T12:35:11;31.10;99.90
21176;DHT22;10746;50.178;8.186;2023-06-22T12:37:41;31.20;99.90
21176;DHT22;10746;50.178;8.186;2023-06-22T12:40:09;31.20;99.90
21176;DHT22;10746;50.178;8.186;2023-06-22T12:42:36;31.10;99.90
21176;DHT22;10746;50.178;8.186;2023-06-22T12:45:04;29.90;99.90
21176;DHT22;10746;50.178;8.186;2023-06-22T12:47:31;29.90;99.90
21176;DHT22;10746;50.178;8.186;2023-06-22T12:49:58;30.10;99.90
21176;DHT22;10746;50.178;8.186;2023-06-22T12:52:25;30.20;99.90
21176;DHT22;10746;50.178;8.186;2023-06-22T12:54:53;30.10;99.90
21176;DHT22;10746;50.178;8.186;2023-06-22T12:57:20;29.50;99.90
21176;DHT22;10746;50.178;8.186;2023-06-22T12:59:47;29.40;99.90
21176;DHT22;10746;50.178;8.186;2023-06-22T13:02:14;29.70;99.90
21176;DHT22;10746;50.178;8.186;2023-06-22T13:04:41;30.40;99.90
21176;DHT22;10746;50.178;8.186;2023-06-22T13:07:08;31.00;99.90
21176;DHT22;10746;50.178;8.186;2023-06-22T13:09:36;31.60;99.90
21176;DHT22;10746;50.178;8.186;2023-06-22T13:12:05;31.40;99.90
21176;DHT22;10746;50.178;8.186;2023-06-22T13:14:32;31.00;99.90
21176;DHT22;10746;50.178;8.186;2023-06-22T13:16:58;31.00;99.90
21176;DHT22;10746;50.178;8.186;2023-06-22T13:19:25;31.20;99.90
21176;DHT22;10746;50.178;8.186;2023-06-22T13:21:54;31.60;99.90
21176;DHT22;10746;50.178;8.186;2023-06-22T13:24:21;31.90;99.90
21176;DHT22;10746;50.178;8.186;2023-06-22T13:26:47;31.80;99.90
21176;DHT22;10746;50.178;8.186;2023-06-22T13:29:15;32.10;99.90
21176;DHT22;10746;50.178;8.186;2023-06-22T13:31:42;31.80;99.90
21176;DHT22;10746;50.178;8.186;2023-06-22T13:34:09;31.80;99.90
21176;DHT22;10746;50.178;8.186;2023-06-22T13:36:36;31.60;99.90
21176;DHT22;10746;50.178;8.186;2023-06-22T13:39:03;31.30;99.90
21176;DHT22;10746;50.178;8.186;2023-06-22T13:41:30;30.70;99.90
21176;DHT22;10746;50.178;8.186;2023-06-22T13:43:56;30.60;99.90
21176;DHT22;10746;50.178;8.186;2023-06-22T13:46:24;30.40;99.90
21176;DHT22;10746;50.178;8.186;2023-06-22T13:48:51;30.30;99.90
21176;DHT22;10746;50.178;8.186;2023-06-22T13:51:18;30.00;99.90
21176;DHT22;10746;50.178;8.186;2023-06-22T13:53:46;29.90;99.90
21176;DHT22;10746;50.178;8.186;2023-06-22T13:56:12;29.50;99.90
21176;DHT22;10746;50.178;8.186;2023-06-22T13:58:39;29.40;99.90
21176;DHT22;10746;50.178;8.186;2023-06-22T14:01:06;29.00;99.90
21176;DHT22;10746;50.178;8.186;2023-06-22T14:03:34;28.60;99.90
21176;DHT22;10746;50.178;8.186;2023-06-22T14:06:01;28.30;99.90
21176;DHT22;10746;50.178;8.186;2023-06-22T14:08:27;28.20;99.90
21176;DHT22;10746;50.178;8.186;2023-06-22T14:10:54;28.10;99.90
21176;DHT22;10746;50.178;8.186;2023-06-22T14:13:21;28.10;99.90
21176;DHT22;10746;50.178;8.186;2023-06-22T14:15:48;27.90;99.90
21176;DHT22;10746;50.178;8.186;2023-06-22T14:18:17;27.90;99.90
21176;DHT22;10746;50.178;8.186;2023-06-22T14:20:46;27.80;99.90
21176;DHT22;10746;50.178;8.186;2023-06-22T14:23:13;27.60;99.90
21176;DHT22;10746;50.178;8.186;2023-06-22T14:25:40;27.60;99.90
21176;DHT22;10746;50.178;8.186;2023-06-22T14:28:06;27.60;99.90
21176;DHT22;10746;50.178;8.186;2023-06-22T14:30:33;27.70;99.90
21176;DHT22;10746;50.178;8.186;2023-06-22T14:33:00;27.70;99.90
21176;DHT22;10746;50.178;8.186;2023-06-22T14:35:28;27.70;99.90
21176;DHT22;10746;50.178;8.186;2023-06-22T14:37:56;27.60;99.90
21176;DHT22;10746;50.178;8.186;2023-06-22T14:40:23;27.60;99.90
21176;DHT22;10746;50.178;8.186;2023-06-22T14:42:49;27.60;99.90
21176;DHT22;10746;50.178;8.186;2023-06-22T14:45:16;27.50;99.90
21176;DHT22;10746;50.178;8.186;2023-06-22T14:47:43;27.60;99.90
21176;DHT22;10746;50.178;8.186;2023-06-22T14:50:10;27.60;99.90
21176;DHT22;10746;50.178;8.186;2023-06-22T14:52:36;27.50;99.90
21176;DHT22;10746;50.178;8.186;2023-06-22T14:55:05;27.50;99.90
21176;DHT22;10746;50.178;8.186;2023-06-22T14:57:32;27.50;99.90
21176;DHT22;10746;50.178;8.186;2023-06-22T14:59:59;27.50;99.90
21176;DHT22;10746;50.178;8.186;2023-06-22T15:02:27;27.40;99.90
21176;DHT22;10746;50.178;8.186;2023-06-22T15:04:54;27.50;99.90
21176;DHT22;10746;50.178;8.186;2023-06-22T15:07:21;27.40;99.90
21176;DHT22;10746;50.178;8.186;2023-06-22T15:09:47;27.40;99.90
21176;DHT22;10746;50.178;8.186;2023-06-22T15:12:15;27.30;99.90
21176;DHT22;10746;50.178;8.186;2023-06-22T15:14:42;27.30;99.90
21176;DHT22;10746;50.178;8.186;2023-06-22T15:17:09;27.30;99.90
21176;DHT22;10746;50.178;8.186;2023-06-22T15:19:36;27.30;99.90
21176;DHT22;10746;50.178;8.186;2023-06-22T15:22:04;27.30;99.90
21176;DHT22;10746;50.178;8.186;2023-06-22T15:24:31;27.20;99.90
21176;DHT22;10746;50.178;8.186;2023-06-22T15:26:58;27.20;99.90
21176;DHT22;10746;50.178;8.186;2023-06-22T15:29:26;27.30;99.90
21176;DHT22;10746;50.178;8.186;2023-06-22T15:31:55;27.10;99.90
21176;DHT22;10746;50.178;8.186;2023-06-22T15:34:22;27.10;99.90
21176;DHT22;10746;50.178;8.186;2023-06-22T15:36:49;27.00;99.90
21176;DHT22;10746;50.178;8.186;2023-06-22T15:39:15;26.60;99.90
21176;DHT22;10746;50.178;8.186;2023-06-22T15:41:43;25.90;99.90
21176;DHT22;10746;50.178;8.186;2023-06-22T15:44:10;25.70;99.90
21176;DHT22;10746;50.178;8.186;2023-06-22T15:46:38;25.50;99.90